Ana Sayfa
METAR-TAF:

METAR-TAF

Havaalanları :

Garoua, Kamerun

Enlem: 09-20N, Boylam: 013-23E, yükseklik: 242 m

Güncel hava durumu gözlemi

Rapor saat 20:00 UTC de 7 saat ve 8 dakika önce yapıldı.
Rüzgar batıdan 4 kt
Sıcaklık 22°C
Nem 43%
Basınç 1011 hPa
Görüş mesafesi 10 km veya daha fazla
1500 m altında bulut yok ve kümülonimbus yok

METAR: FKKR 072000Z 27004KT CAVOK 22/09 Q1011 NOSIG

Saat: 04:08 (03:08 UTC)

Tahmin

Rapor saat 11:00 UTC de 16 saat ve 8 dakika önce yapıldı.
Ayın 07'si saat 12 UTC'den ayın 07'si saat 24 UTC'ye kadar geçerli Tahmin
Rüzgar doğu/güneydoğudan 6 kt
Görüş mesafesi 10 km veya daha fazla
1500 m altında bulut yok ve kümülonimbus yok

TAF: FKKR 071100Z 0712/0724 11006KT CAVOK

4.000'den fazla havaalanı için hava durumu gözlemleri ve tahminleri (METAR ve TAF raporları).

Kullanılabilir istasyonlar harita üzerinde sarı ve kırmızı noktalarla gösterilir.

İstasyonun adını görmek için fareyi noktanın üzerinde gezdirin.

Sonrasında hava gözlem ve tahminlerini görmek için tıklayın.

Haritayı değiştirmek için: yaklaştırmak için siyah artı işaretli yeşil düğmeye ve uzaklaştırmak için de eksi işaretli düğmeye hızla tıklayın; bitişik haritalar için yeşil okları kullanın.


METAR-TAF: